Portada
METAR-TAF:

METAR-TAF

Aeropuertos :

Aeropuerto de Andorra-La Seu

Seo de Urgel, España

latitud: 42-20-29N, longitud: 001-24-17E, altitud: 802 m

Observación

El informe se hizo hace 16 horas y 0 minutos, a las 17:00 UTC
Viento 9 kt del suroeste
Temperatura 26°C
Humedad 48%
Presión 1021 hPa
Visibilidad 10 km o más
Escasas nubes a una altura de 6000 ft

METAR: LESU 221700Z 22009KT 9999 FEW060 26/14 Q1021

Hora: 11:00 (09:00 UTC)

Pronóstico

El informe se hizo hace 1 hora y 0 minutos, a las 08:00 UTC
Pronóstico válido del 23 a las 09 UTC al 24 a las 09 UTC
Viento 3 kt con dirección variable
Visibilidad 10 km o más
Escasas nubes a una altura de 2000 ft
Evolucionando progresivamente
del 23 a las 10 UTC al 23 a las 12 UTC
Viento 8 kt del sur
Evolucionando progresivamente
del 23 a las 18 UTC al 23 a las 20 UTC
Viento 4 kt con dirección variable

TAF: LESU 230800Z 2309/2409 VRB03KT 9999 FEW020 TX29/2314Z TN13/2405Z BECMG 2310/2312 18008KT BECMG 2318/2320 VRB04KT

Observaciones y pronósticos meteorológicos de más de 4000 aeropuertos (mensajes METAR y TAF).

Los puntos amarillos y rojos representan las estaciones disponibles.

Ponga el ratón en el punto deseado para ver el nombre de la estación.

Haga clic para ver las observaciones y los pronósticos meteorológicos.

Para cambiar el mapa : haga clic en los botones verdes con una cruz de color negro para hacer un zoom, en el botón verde con un guión para alejar o en las flechas verdes para mapas adyacentes.


METAR-TAF: